sensor_id;sensor_type;location;lat;lon;timestamp;pressure;altitude;pressure_sealevel;temperature;humidity
79671;BME280;69137;50.878;8.050;2023-06-14T00:02:16;98121.66;;;14.85;54.81
79671;BME280;69137;50.878;8.050;2023-06-14T00:04:42;98120.66;;;14.95;54.69
79671;BME280;69137;50.878;8.050;2023-06-14T00:07:08;98127.19;;;14.99;53.69
79671;BME280;69137;50.878;8.050;2023-06-14T00:09:34;98126.16;;;14.95;54.08
79671;BME280;69137;50.878;8.050;2023-06-14T00:12:00;98122.91;;;14.93;54.50
79671;BME280;69137;50.878;8.050;2023-06-14T00:14:26;98118.53;;;14.73;53.87
79671;BME280;69137;50.878;8.050;2023-06-14T00:16:51;98118.34;;;14.69;53.23
79671;BME280;69137;50.878;8.050;2023-06-14T00:19:18;98128.56;;;14.82;53.13
79671;BME280;69137;50.878;8.050;2023-06-14T00:21:44;98124.47;;;14.80;54.17
79671;BME280;69137;50.878;8.050;2023-06-14T00:24:10;98131.03;;;14.84;54.65
79671;BME280;69137;50.878;8.050;2023-06-14T00:26:36;98134.78;;;14.88;55.20
79671;BME280;69137;50.878;8.050;2023-06-14T00:29:01;98135.66;;;14.70;55.30
79671;BME280;69137;50.878;8.050;2023-06-14T00:31:27;98128.44;;;14.74;54.88
79671;BME280;69137;50.878;8.050;2023-06-14T00:33:52;98128.94;;;14.76;53.72
79671;BME280;69137;50.878;8.050;2023-06-14T00:36:18;98137.25;;;14.71;53.56
79671;BME280;69137;50.878;8.050;2023-06-14T00:38:43;98133.78;;;14.65;53.40
79671;BME280;69137;50.878;8.050;2023-06-14T00:41:08;98134.31;;;14.67;52.61
79671;BME280;69137;50.878;8.050;2023-06-14T00:43:34;98136.31;;;14.61;52.59
79671;BME280;69137;50.878;8.050;2023-06-14T00:46:00;98141.75;;;14.67;52.61
79671;BME280;69137;50.878;8.050;2023-06-14T00:48:25;98133.09;;;14.73;51.74
79671;BME280;69137;50.878;8.050;2023-06-14T00:50:51;98138.19;;;14.66;51.16
79671;BME280;69137;50.878;8.050;2023-06-14T00:53:18;98143.09;;;14.69;51.34
79671;BME280;69137;50.878;8.050;2023-06-14T00:55:46;98136.53;;;14.65;51.45
79671;BME280;69137;50.878;8.050;2023-06-14T00:58:12;98139.06;;;14.61;51.83
79671;BME280;69137;50.878;8.050;2023-06-14T01:00:37;98138.69;;;14.68;51.51
79671;BME280;69137;50.878;8.050;2023-06-14T01:03:03;98140.19;;;14.60;51.39
79671;BME280;69137;50.878;8.050;2023-06-14T01:05:29;98137.75;;;14.59;51.60
79671;BME280;69137;50.878;8.050;2023-06-14T01:11:09;98144.44;;;14.53;52.46
79671;BME280;69137;50.878;8.050;2023-06-14T01:13:42;98148.03;;;14.48;54.16
79671;BME280;69137;50.878;8.050;2023-06-14T01:16:08;98142.69;;;14.38;54.49
79671;BME280;69137;50.878;8.050;2023-06-14T01:18:34;98159.72;;;14.40;54.90
79671;BME280;69137;50.878;8.050;2023-06-14T01:21:00;98147.88;;;14.39;52.78
79671;BME280;69137;50.878;8.050;2023-06-14T01:23:30;98150.47;;;14.31;53.65
79671;BME280;69137;50.878;8.050;2023-06-14T01:25:58;98145.88;;;14.26;55.07
79671;BME280;69137;50.878;8.050;2023-06-14T01:28:24;98144.84;;;14.22;54.16
79671;BME280;69137;50.878;8.050;2023-06-14T01:30:54;98148.09;;;14.24;54.72
79671;BME280;69137;50.878;8.050;2023-06-14T01:33:24;98142.91;;;14.23;54.22
79671;BME280;69137;50.878;8.050;2023-06-14T01:35:52;98136.06;;;14.20;53.41
79671;BME280;69137;50.878;8.050;2023-06-14T01:38:19;98147.88;;;14.20;53.12
79671;BME280;69137;50.878;8.050;2023-06-14T01:40:46;98146.59;;;14.13;53.25
79671;BME280;69137;50.878;8.050;2023-06-14T01:43:13;98143.31;;;14.11;53.39
79671;BME280;69137;50.878;8.050;2023-06-14T01:45:40;98152.09;;;14.13;54.38
79671;BME280;69137;50.878;8.050;2023-06-14T01:48:07;98143.91;;;14.08;54.41
79671;BME280;69137;50.878;8.050;2023-06-14T01:50:32;98150.06;;;13.99;54.71
79671;BME280;69137;50.878;8.050;2023-06-14T01:52:58;98144.94;;;13.93;54.52
79671;BME280;69137;50.878;8.050;2023-06-14T01:55:24;98150.25;;;13.84;54.11
79671;BME280;69137;50.878;8.050;2023-06-14T01:57:53;98137.84;;;13.68;53.81
79671;BME280;69137;50.878;8.050;2023-06-14T02:00:19;98138.59;;;13.73;53.89
79671;BME280;69137;50.878;8.050;2023-06-14T02:02:46;98141.41;;;13.68;53.64
79671;BME280;69137;50.878;8.050;2023-06-14T02:05:12;98136.03;;;13.58;54.23
79671;BME280;69137;50.878;8.050;2023-06-14T02:07:37;98135.31;;;13.47;54.61
79671;BME280;69137;50.878;8.050;2023-06-14T02:10:05;98134.56;;;13.42;54.59
79671;BME280;69137;50.878;8.050;2023-06-14T02:12:31;98137.47;;;13.50;53.88
79671;BME280;69137;50.878;8.050;2023-06-14T02:14:56;98129.59;;;13.44;54.60
79671;BME280;69137;50.878;8.050;2023-06-14T02:17:23;98128.53;;;13.40;54.48
79671;BME280;69137;50.878;8.050;2023-06-14T02:19:48;98131.63;;;13.33;54.67
79671;BME280;69137;50.878;8.050;2023-06-14T02:22:15;98128.53;;;13.40;54.71
79671;BME280;69137;50.878;8.050;2023-06-14T02:24:42;98133.50;;;13.38;55.35
79671;BME280;69137;50.878;8.050;2023-06-14T02:27:08;98131.19;;;13.21;55.83
79671;BME280;69137;50.878;8.050;2023-06-14T02:29:36;98134.41;;;13.28;56.44
79671;BME280;69137;50.878;8.050;2023-06-14T02:32:01;98132.78;;;13.27;56.44
79671;BME280;69137;50.878;8.050;2023-06-14T02:34:26;98128.94;;;13.28;56.81
79671;BME280;69137;50.878;8.050;2023-06-14T02:36:52;98132.22;;;13.25;57.31
79671;BME280;69137;50.878;8.050;2023-06-14T02:39:17;98140.22;;;13.26;57.26
79671;BME280;69137;50.878;8.050;2023-06-14T02:41:46;98136.63;;;13.26;57.40
79671;BME280;69137;50.878;8.050;2023-06-14T02:44:13;98141.84;;;13.27;57.42
79671;BME280;69137;50.878;8.050;2023-06-14T02:46:38;98139.69;;;13.19;57.62
79671;BME280;69137;50.878;8.050;2023-06-14T02:49:04;98137.72;;;13.25;57.24
79671;BME280;69137;50.878;8.050;2023-06-14T02:51:29;98134.13;;;13.29;57.18
79671;BME280;69137;50.878;8.050;2023-06-14T02:53:54;98135.28;;;13.23;57.35
79671;BME280;69137;50.878;8.050;2023-06-14T02:56:20;98138.63;;;13.15;57.27
79671;BME280;69137;50.878;8.050;2023-06-14T02:58:47;98132.91;;;13.11;57.22
79671;BME280;69137;50.878;8.050;2023-06-14T03:01:14;98145.50;;;13.12;57.38
79671;BME280;69137;50.878;8.050;2023-06-14T03:03:39;98144.47;;;13.08;57.95
79671;BME280;69137;50.878;8.050;2023-06-14T03:06:05;98146.94;;;13.10;57.11
79671;BME280;69137;50.878;8.050;2023-06-14T03:08:31;98151.97;;;12.98;57.99
79671;BME280;69137;50.878;8.050;2023-06-14T03:11:03;98150.56;;;13.00;57.89
79671;BME280;69137;50.878;8.050;2023-06-14T03:13:30;98156.28;;;13.04;57.75
79671;BME280;69137;50.878;8.050;2023-06-14T03:15:57;98152.97;;;13.07;57.05
79671;BME280;69137;50.878;8.050;2023-06-14T03:18:23;98160.81;;;13.19;57.13
79671;BME280;69137;50.878;8.050;2023-06-14T03:20:48;98160.28;;;13.17;57.14
79671;BME280;69137;50.878;8.050;2023-06-14T03:23:16;98156.28;;;13.04;57.92
79671;BME280;69137;50.878;8.050;2023-06-14T03:25:41;98166.94;;;13.10;57.62
79671;BME280;69137;50.878;8.050;2023-06-14T03:28:07;98172.50;;;13.00;57.98
79671;BME280;69137;50.878;8.050;2023-06-14T03:30:33;98179.84;;;13.10;58.22
79671;BME280;69137;50.878;8.050;2023-06-14T03:32:58;98179.53;;;13.11;57.93
79671;BME280;69137;50.878;8.050;2023-06-14T03:35:26;98171.38;;;13.01;58.63
79671;BME280;69137;50.878;8.050;2023-06-14T03:37:52;98181.13;;;13.18;58.33
79671;BME280;69137;50.878;8.050;2023-06-14T03:40:21;98182.72;;;13.24;57.79
79671;BME280;69137;50.878;8.050;2023-06-14T03:42:46;98179.34;;;13.03;58.88
79671;BME280;69137;50.878;8.050;2023-06-14T03:45:12;98186.44;;;13.04;58.50
79671;BME280;69137;50.878;8.050;2023-06-14T03:47:37;98194.97;;;13.02;58.98
79671;BME280;69137;50.878;8.050;2023-06-14T03:50:03;98196.66;;;12.98;58.70
79671;BME280;69137;50.878;8.050;2023-06-14T03:52:29;98205.94;;;13.02;59.07
79671;BME280;69137;50.878;8.050;2023-06-14T03:54:55;98201.31;;;12.98;59.31
79671;BME280;69137;50.878;8.050;2023-06-14T03:57:21;98203.00;;;12.94;59.18
79671;BME280;69137;50.878;8.050;2023-06-14T03:59:47;98212.59;;;12.91;59.46
79671;BME280;69137;50.878;8.050;2023-06-14T04:02:12;98200.50;;;12.97;59.44
79671;BME280;69137;50.878;8.050;2023-06-14T04:04:41;98199.22;;;12.84;59.47
79671;BME280;69137;50.878;8.050;2023-06-14T04:07:12;98212.03;;;12.94;59.07
79671;BME280;69137;50.878;8.050;2023-06-14T04:09:39;98213.41;;;12.92;59.09
79671;BME280;69137;50.878;8.050;2023-06-14T04:12:05;98228.00;;;12.87;59.16
79671;BME280;69137;50.878;8.050;2023-06-14T04:14:30;98223.34;;;12.87;59.63
79671;BME280;69137;50.878;8.050;2023-06-14T04:16:58;98226.91;;;12.83;59.86
79671;BME280;69137;50.878;8.050;2023-06-14T04:19:24;98235.38;;;12.86;58.96
79671;BME280;69137;50.878;8.050;2023-06-14T04:21:49;98240.03;;;12.91;59.54
79671;BME280;69137;50.878;8.050;2023-06-14T04:24:15;98238.34;;;12.95;59.70
79671;BME280;69137;50.878;8.050;2023-06-14T04:26:42;98235.94;;;12.88;59.34
79671;BME280;69137;50.878;8.050;2023-06-14T04:29:12;98235.06;;;12.93;59.11
79671;BME280;69137;50.878;8.050;2023-06-14T04:31:45;98236.69;;;12.94;59.75
79671;BME280;69137;50.878;8.050;2023-06-14T04:34:12;98238.94;;;12.92;60.21
79671;BME280;69137;50.878;8.050;2023-06-14T04:36:44;98234.81;;;12.95;59.87
79671;BME280;69137;50.878;8.050;2023-06-14T04:39:15;98243.81;;;13.00;59.85
79671;BME280;69137;50.878;8.050;2023-06-14T04:41:42;98241.50;;;13.12;59.47
79671;BME280;69137;50.878;8.050;2023-06-14T04:44:08;98228.84;;;13.17;60.07
79671;BME280;69137;50.878;8.050;2023-06-14T04:46:35;98231.06;;;13.15;60.03
79671;BME280;69137;50.878;8.050;2023-06-14T04:49:09;98241.41;;;13.28;59.34
79671;BME280;69137;50.878;8.050;2023-06-14T04:51:35;98237.28;;;13.25;59.77
79671;BME280;69137;50.878;8.050;2023-06-14T04:54:02;98232.59;;;13.36;59.09
79671;BME280;69137;50.878;8.050;2023-06-14T04:56:28;98241.53;;;13.47;59.69
79671;BME280;69137;50.878;8.050;2023-06-14T04:58:54;98235.28;;;13.41;59.40
79671;BME280;69137;50.878;8.050;2023-06-14T05:01:21;98245.31;;;13.51;60.39
79671;BME280;69137;50.878;8.050;2023-06-14T05:03:48;98239.56;;;13.52;60.02
79671;BME280;69137;50.878;8.050;2023-06-14T05:06:15;98250.44;;;13.63;59.37
79671;BME280;69137;50.878;8.050;2023-06-14T05:08:41;98251.91;;;13.79;57.60
79671;BME280;69137;50.878;8.050;2023-06-14T05:11:06;98248.53;;;13.87;58.09
79671;BME280;69137;50.878;8.050;2023-06-14T05:13:32;98246.25;;;13.94;58.15
79671;BME280;69137;50.878;8.050;2023-06-14T05:15:58;98244.75;;;14.07;57.12
79671;BME280;69137;50.878;8.050;2023-06-14T05:18:24;98245.97;;;14.20;56.65
79671;BME280;69137;50.878;8.050;2023-06-14T05:20:50;98254.72;;;14.46;55.74
79671;BME280;69137;50.878;8.050;2023-06-14T05:23:16;98251.78;;;14.61;55.11
79671;BME280;69137;50.878;8.050;2023-06-14T05:25:45;98249.56;;;14.82;54.14
79671;BME280;69137;50.878;8.050;2023-06-14T05:28:11;98252.63;;;15.00;55.28
79671;BME280;69137;50.878;8.050;2023-06-14T05:30:38;98254.19;;;15.39;50.93
79671;BME280;69137;50.878;8.050;2023-06-14T05:33:03;98256.16;;;15.71;50.72
79671;BME280;69137;50.878;8.050;2023-06-14T05:35:29;98252.19;;;15.91;49.52
79671;BME280;69137;50.878;8.050;2023-06-14T05:37:54;98252.63;;;16.12;48.06
79671;BME280;69137;50.878;8.050;2023-06-14T05:40:20;98253.34;;;16.17;48.37
79671;BME280;69137;50.878;8.050;2023-06-14T05:42:45;98253.72;;;16.38;47.74
79671;BME280;69137;50.878;8.050;2023-06-14T05:45:11;98258.13;;;16.53;47.69
79671;BME280;69137;50.878;8.050;2023-06-14T05:47:37;98252.38;;;16.77;46.66
79671;BME280;69137;50.878;8.050;2023-06-14T05:50:02;98260.94;;;16.90;46.55
79671;BME280;69137;50.878;8.050;2023-06-14T05:52:28;98265.06;;;17.15;46.30
79671;BME280;69137;50.878;8.050;2023-06-14T05:54:55;98255.53;;;17.21;45.82
79671;BME280;69137;50.878;8.050;2023-06-14T05:57:20;98261.66;;;17.40;45.50
79671;BME280;69137;50.878;8.050;2023-06-14T05:59:47;98267.25;;;17.49;45.20
79671;BME280;69137;50.878;8.050;2023-06-14T06:02:12;98266.66;;;17.61;45.17
79671;BME280;69137;50.878;8.050;2023-06-14T06:04:38;98263.78;;;17.88;45.26
79671;BME280;69137;50.878;8.050;2023-06-14T06:07:03;98267.38;;;17.98;44.07
79671;BME280;69137;50.878;8.050;2023-06-14T06:09:29;98265.09;;;17.91;44.06
79671;BME280;69137;50.878;8.050;2023-06-14T06:11:55;98275.84;;;17.70;44.76
79671;BME280;69137;50.878;8.050;2023-06-14T06:14:20;98269.63;;;17.87;44.49
79671;BME280;69137;50.878;8.050;2023-06-14T06:16:46;98272.31;;;18.01;44.23
79671;BME280;69137;50.878;8.050;2023-06-14T06:19:11;98267.22;;;17.94;44.69
79671;BME280;69137;50.878;8.050;2023-06-14T06:21:37;98268.56;;;18.05;44.70
79671;BME280;69137;50.878;8.050;2023-06-14T06:24:05;98278.81;;;18.05;43.98
79671;BME280;69137;50.878;8.050;2023-06-14T06:26:31;98277.84;;;18.01;43.75
79671;BME280;69137;50.878;8.050;2023-06-14T06:29:00;98286.25;;;18.27;43.44
79671;BME280;69137;50.878;8.050;2023-06-14T06:31:25;98288.88;;;18.32;42.97
79671;BME280;69137;50.878;8.050;2023-06-14T06:33:53;98278.25;;;18.25;43.21
79671;BME280;69137;50.878;8.050;2023-06-14T06:36:19;98283.94;;;18.20;42.92
79671;BME280;69137;50.878;8.050;2023-06-14T06:38:47;98280.66;;;18.18;43.44
79671;BME280;69137;50.878;8.050;2023-06-14T06:41:12;98277.09;;;18.18;43.17
79671;BME280;69137;50.878;8.050;2023-06-14T06:43:38;98271.28;;;18.28;43.26
79671;BME280;69137;50.878;8.050;2023-06-14T06:46:03;98277.00;;;18.31;43.29
79671;BME280;69137;50.878;8.050;2023-06-14T06:48:28;98282.13;;;18.73;42.65
79671;BME280;69137;50.878;8.050;2023-06-14T06:50:54;98285.38;;;18.58;42.46
79671;BME280;69137;50.878;8.050;2023-06-14T06:53:20;98288.00;;;18.71;43.15
79671;BME280;69137;50.878;8.050;2023-06-14T06:55:45;98294.69;;;18.70;42.35
79671;BME280;69137;50.878;8.050;2023-06-14T06:58:12;98292.13;;;18.83;42.14
79671;BME280;69137;50.878;8.050;2023-06-14T07:00:37;98286.78;;;18.95;42.23
79671;BME280;69137;50.878;8.050;2023-06-14T07:03:02;98288.06;;;19.06;41.69
79671;BME280;69137;50.878;8.050;2023-06-14T07:05:29;98292.16;;;19.26;40.92
79671;BME280;69137;50.878;8.050;2023-06-14T07:07:55;98299.50;;;19.13;41.23
79671;BME280;69137;50.878;8.050;2023-06-14T07:10:20;98296.91;;;19.26;41.10
79671;BME280;69137;50.878;8.050;2023-06-14T07:12:46;98302.91;;;19.10;40.96
79671;BME280;69137;50.878;8.050;2023-06-14T07:15:11;98299.16;;;18.97;40.71
79671;BME280;69137;50.878;8.050;2023-06-14T07:17:37;98313.34;;;19.05;41.30
79671;BME280;69137;50.878;8.050;2023-06-14T07:20:03;98310.06;;;18.94;41.49
79671;BME280;69137;50.878;8.050;2023-06-14T07:22:33;98306.00;;;19.00;41.50
79671;BME280;69137;50.878;8.050;2023-06-14T07:24:58;98308.09;;;19.03;41.73
79671;BME280;69137;50.878;8.050;2023-06-14T07:27:24;98310.56;;;19.13;41.55
79671;BME280;69137;50.878;8.050;2023-06-14T07:29:49;98311.22;;;19.62;41.75
79671;BME280;69137;50.878;8.050;2023-06-14T07:32:14;98309.91;;;19.60;40.76
79671;BME280;69137;50.878;8.050;2023-06-14T07:34:40;98320.03;;;19.73;40.97
79671;BME280;69137;50.878;8.050;2023-06-14T07:37:05;98313.34;;;19.74;39.97
79671;BME280;69137;50.878;8.050;2023-06-14T07:39:31;98318.56;;;19.50;40.47
79671;BME280;69137;50.878;8.050;2023-06-14T07:41:56;98313.84;;;19.68;40.59
79671;BME280;69137;50.878;8.050;2023-06-14T07:44:21;98316.28;;;19.78;39.51
79671;BME280;69137;50.878;8.050;2023-06-14T07:46:47;98312.50;;;19.91;40.53
79671;BME280;69137;50.878;8.050;2023-06-14T07:49:14;98312.53;;;19.82;40.08
79671;BME280;69137;50.878;8.050;2023-06-14T07:51:40;98312.03;;;19.80;39.90
79671;BME280;69137;50.878;8.050;2023-06-14T07:54:05;98314.25;;;20.04;40.05
79671;BME280;69137;50.878;8.050;2023-06-14T07:56:32;98317.47;;;20.15;39.35
79671;BME280;69137;50.878;8.050;2023-06-14T07:58:58;98321.88;;;20.25;38.69
79671;BME280;69137;50.878;8.050;2023-06-14T08:01:23;98312.31;;;20.52;38.43
79671;BME280;69137;50.878;8.050;2023-06-14T08:03:50;98329.84;;;20.73;37.41
79671;BME280;69137;50.878;8.050;2023-06-14T08:06:16;98319.59;;;20.27;37.59
79671;BME280;69137;50.878;8.050;2023-06-14T08:08:41;98317.84;;;20.14;38.41
79671;BME280;69137;50.878;8.050;2023-06-14T08:11:06;98331.69;;;20.05;36.91
79671;BME280;69137;50.878;8.050;2023-06-14T08:13:32;98323.56;;;20.08;37.18
79671;BME280;69137;50.878;8.050;2023-06-14T08:15:58;98312.09;;;20.19;37.00
79671;BME280;69137;50.878;8.050;2023-06-14T08:18:23;98313.28;;;20.56;36.88
79671;BME280;69137;50.878;8.050;2023-06-14T08:20:49;98315.25;;;20.56;35.67
79671;BME280;69137;50.878;8.050;2023-06-14T08:23:15;98328.78;;;20.48;35.88
79671;BME280;69137;50.878;8.050;2023-06-14T08:25:44;98316.78;;;20.74;35.52
79671;BME280;69137;50.878;8.050;2023-06-14T08:28:10;98314.91;;;20.48;35.23
79671;BME280;69137;50.878;8.050;2023-06-14T08:30:35;98316.53;;;20.58;35.63
79671;BME280;69137;50.878;8.050;2023-06-14T08:33:01;98322.09;;;20.58;35.75
79671;BME280;69137;50.878;8.050;2023-06-14T08:35:26;98318.22;;;20.42;36.21
79671;BME280;69137;50.878;8.050;2023-06-14T08:37:52;98325.16;;;20.65;36.59
79671;BME280;69137;50.878;8.050;2023-06-14T08:40:23;98327.63;;;20.88;35.35
79671;BME280;69137;50.878;8.050;2023-06-14T08:42:53;98325.50;;;20.64;35.33
79671;BME280;69137;50.878;8.050;2023-06-14T08:45:22;98327.28;;;20.68;36.37
79671;BME280;69137;50.878;8.050;2023-06-14T08:47:49;98329.69;;;20.70;36.24
79671;BME280;69137;50.878;8.050;2023-06-14T08:50:23;98331.16;;;20.67;36.95
79671;BME280;69137;50.878;8.050;2023-06-14T08:52:54;98323.75;;;20.80;36.85
79671;BME280;69137;50.878;8.050;2023-06-14T08:55:21;98332.19;;;20.92;36.34
79671;BME280;69137;50.878;8.050;2023-06-14T08:57:51;98328.78;;;20.87;34.65
79671;BME280;69137;50.878;8.050;2023-06-14T09:00:19;98328.63;;;21.13;35.24
79671;BME280;69137;50.878;8.050;2023-06-14T09:02:46;98327.94;;;21.16;35.57
79671;BME280;69137;50.878;8.050;2023-06-14T09:05:12;98333.25;;;21.30;34.83
79671;BME280;69137;50.878;8.050;2023-06-14T09:07:43;98333.63;;;21.49;34.60
79671;BME280;69137;50.878;8.050;2023-06-14T09:10:11;98337.59;;;21.40;34.06
79671;BME280;69137;50.878;8.050;2023-06-14T09:12:37;98335.03;;;21.55;33.91
79671;BME280;69137;50.878;8.050;2023-06-14T09:15:06;98329.34;;;21.52;34.78
79671;BME280;69137;50.878;8.050;2023-06-14T09:17:36;98337.44;;;21.15;34.15
79671;BME280;69137;50.878;8.050;2023-06-14T09:20:03;98336.06;;;21.00;33.80
79671;BME280;69137;50.878;8.050;2023-06-14T09:22:34;98337.63;;;21.10;33.96
79671;BME280;69137;50.878;8.050;2023-06-14T09:25:00;98338.03;;;21.00;34.03
79671;BME280;69137;50.878;8.050;2023-06-14T09:27:27;98348.34;;;20.99;33.73
79671;BME280;69137;50.878;8.050;2023-06-14T09:29:53;98345.94;;;20.89;34.95
79671;BME280;69137;50.878;8.050;2023-06-14T09:32:18;98348.06;;;21.13;34.30
79671;BME280;69137;50.878;8.050;2023-06-14T09:34:45;98356.97;;;21.27;34.37
79671;BME280;69137;50.878;8.050;2023-06-14T09:37:11;98352.72;;;21.30;34.16
79671;BME280;69137;50.878;8.050;2023-06-14T09:39:49;98350.53;;;21.14;34.41
79671;BME280;69137;50.878;8.050;2023-06-14T09:42:18;98349.06;;;21.38;34.15
79671;BME280;69137;50.878;8.050;2023-06-14T09:44:48;98355.50;;;21.30;34.29
79671;BME280;69137;50.878;8.050;2023-06-14T09:47:15;98347.50;;;21.49;33.94
79671;BME280;69137;50.878;8.050;2023-06-14T09:49:41;98346.38;;;21.84;34.23
79671;BME280;69137;50.878;8.050;2023-06-14T09:52:10;98364.72;;;21.85;34.43
79671;BME280;69137;50.878;8.050;2023-06-14T09:54:40;98356.38;;;21.43;34.13
79671;BME280;69137;50.878;8.050;2023-06-14T09:57:10;98357.09;;;21.94;33.47
79671;BME280;69137;50.878;8.050;2023-06-14T09:59:40;98365.06;;;22.16;33.96
79671;BME280;69137;50.878;8.050;2023-06-14T10:04:57;98358.50;;;22.33;32.83
79671;BME280;69137;50.878;8.050;2023-06-14T10:07:26;98366.84;;;22.33;33.16
79671;BME280;69137;50.878;8.050;2023-06-14T10:09:55;98367.34;;;22.14;33.57
79671;BME280;69137;50.878;8.050;2023-06-14T10:12:21;98370.69;;;21.74;33.66
79671;BME280;69137;50.878;8.050;2023-06-14T10:14:51;98357.66;;;21.87;33.07
79671;BME280;69137;50.878;8.050;2023-06-14T10:17:49;98367.63;;;21.88;33.96
79671;BME280;69137;50.878;8.050;2023-06-14T10:22:50;98363.50;;;22.07;33.73
79671;BME280;69137;50.878;8.050;2023-06-14T10:25:27;98366.97;;;21.70;34.13
79671;BME280;69137;50.878;8.050;2023-06-14T10:28:23;98366.06;;;22.12;34.39
79671;BME280;69137;50.878;8.050;2023-06-14T10:31:08;98370.19;;;21.93;33.64
79671;BME280;69137;50.878;8.050;2023-06-14T10:33:56;98364.94;;;21.92;33.03
79671;BME280;69137;50.878;8.050;2023-06-14T10:36:31;98364.94;;;21.79;33.30
79671;BME280;69137;50.878;8.050;2023-06-14T10:39:06;98366.00;;;22.20;34.10
79671;BME280;69137;50.878;8.050;2023-06-14T10:41:39;98368.03;;;21.78;34.05
79671;BME280;69137;50.878;8.050;2023-06-14T10:46:46;98374.13;;;21.92;34.64
79671;BME280;69137;50.878;8.050;2023-06-14T10:49:12;98367.16;;;21.65;34.70
79671;BME280;69137;50.878;8.050;2023-06-14T10:51:42;98372.44;;;21.58;35.48
79671;BME280;69137;50.878;8.050;2023-06-14T10:54:13;98364.72;;;21.43;35.13
79671;BME280;69137;50.878;8.050;2023-06-14T10:56:46;98364.63;;;21.01;35.38
79671;BME280;69137;50.878;8.050;2023-06-14T10:59:12;98364.47;;;20.67;36.22
79671;BME280;69137;50.878;8.050;2023-06-14T11:04:51;98361.16;;;21.12;35.17
79671;BME280;69137;50.878;8.050;2023-06-14T11:10:15;98363.50;;;21.73;33.83
79671;BME280;69137;50.878;8.050;2023-06-14T11:12:47;98360.44;;;21.87;34.24
79671;BME280;69137;50.878;8.050;2023-06-14T11:15:13;98366.50;;;22.01;34.00
79671;BME280;69137;50.878;8.050;2023-06-14T11:17:39;98353.78;;;22.13;33.46
79671;BME280;69137;50.878;8.050;2023-06-14T11:20:11;98360.75;;;22.52;33.36
79671;BME280;69137;50.878;8.050;2023-06-14T11:22:44;98351.03;;;22.71;32.58
79671;BME280;69137;50.878;8.050;2023-06-14T11:25:11;98354.94;;;22.12;33.35
79671;BME280;69137;50.878;8.050;2023-06-14T11:27:37;98355.38;;;22.01;33.68
79671;BME280;69137;50.878;8.050;2023-06-14T11:30:02;98367.16;;;21.65;34.67
79671;BME280;69137;50.878;8.050;2023-06-14T11:32:28;98372.44;;;21.58;35.17
79671;BME280;69137;50.878;8.050;2023-06-14T11:34:56;98365.25;;;21.36;35.25
79671;BME280;69137;50.878;8.050;2023-06-14T11:37:23;98361.97;;;21.34;35.55
79671;BME280;69137;50.878;8.050;2023-06-14T11:39:51;98363.09;;;21.63;35.09
79671;BME280;69137;50.878;8.050;2023-06-14T11:42:17;98362.75;;;22.18;34.25
79671;BME280;69137;50.878;8.050;2023-06-14T11:44:45;98359.69;;;22.44;32.18
79671;BME280;69137;50.878;8.050;2023-06-14T11:47:11;98353.78;;;22.46;32.92
79671;BME280;69137;50.878;8.050;2023-06-14T11:49:37;98368.19;;;22.60;32.87
79671;BME280;69137;50.878;8.050;2023-06-14T11:52:02;98362.28;;;22.16;33.04
79671;BME280;69137;50.878;8.050;2023-06-14T11:54:28;98362.16;;;21.92;34.07
79671;BME280;69137;50.878;8.050;2023-06-14T11:56:54;98362.59;;;21.81;34.37
79671;BME280;69137;50.878;8.050;2023-06-14T11:59:20;98360.50;;;21.78;34.59
79671;BME280;69137;50.878;8.050;2023-06-14T12:01:47;98364.09;;;21.58;34.97
79671;BME280;69137;50.878;8.050;2023-06-14T12:04:13;98365.28;;;21.57;34.67
79671;BME280;69137;50.878;8.050;2023-06-14T12:06:38;98355.63;;;21.33;34.70
79671;BME280;69137;50.878;8.050;2023-06-14T12:09:06;98363.47;;;21.31;35.10
79671;BME280;69137;50.878;8.050;2023-06-14T12:11:43;98373.66;;;21.27;35.10
79671;BME280;69137;50.878;8.050;2023-06-14T12:14:12;98363.91;;;21.63;34.83
79671;BME280;69137;50.878;8.050;2023-06-14T12:16:38;98365.66;;;21.68;34.86
79671;BME280;69137;50.878;8.050;2023-06-14T12:19:15;98360.50;;;21.36;33.87
79671;BME280;69137;50.878;8.050;2023-06-14T12:21:42;98356.28;;;21.30;34.77
79671;BME280;69137;50.878;8.050;2023-06-14T12:24:08;98369.94;;;21.65;35.20
79671;BME280;69137;50.878;8.050;2023-06-14T12:26:38;98371.22;;;21.47;35.52
79671;BME280;69137;50.878;8.050;2023-06-14T12:29:05;98362.22;;;21.50;35.29
79671;BME280;69137;50.878;8.050;2023-06-14T12:31:32;98362.53;;;21.27;35.39
79671;BME280;69137;50.878;8.050;2023-06-14T12:33:57;98349.53;;;21.40;34.79
79671;BME280;69137;50.878;8.050;2023-06-14T12:36:23;98350.22;;;21.58;34.55
79671;BME280;69137;50.878;8.050;2023-06-14T12:38:48;98345.25;;;21.85;33.38
79671;BME280;69137;50.878;8.050;2023-06-14T12:41:14;98346.22;;;22.46;32.36
79671;BME280;69137;50.878;8.050;2023-06-14T12:43:40;98357.38;;;22.96;32.47
79671;BME280;69137;50.878;8.050;2023-06-14T12:46:06;98361.22;;;22.79;31.22
79671;BME280;69137;50.878;8.050;2023-06-14T12:48:31;98353.59;;;22.76;30.94
79671;BME280;69137;50.878;8.050;2023-06-14T12:50:57;98351.72;;;22.92;31.72
79671;BME280;69137;50.878;8.050;2023-06-14T12:53:23;98344.03;;;23.38;30.76
79671;BME280;69137;50.878;8.050;2023-06-14T12:55:49;98344.06;;;23.14;30.27
79671;BME280;69137;50.878;8.050;2023-06-14T12:58:14;98350.25;;;23.07;31.09
79671;BME280;69137;50.878;8.050;2023-06-14T13:00:42;98353.81;;;22.71;31.64
79671;BME280;69137;50.878;8.050;2023-06-14T13:03:07;98361.09;;;22.51;32.42
79671;BME280;69137;50.878;8.050;2023-06-14T13:05:33;98368.13;;;22.36;32.17
79671;BME280;69137;50.878;8.050;2023-06-14T13:07:59;98355.50;;;22.26;32.03
79671;BME280;69137;50.878;8.050;2023-06-14T13:10:25;98349.78;;;22.22;32.10
79671;BME280;69137;50.878;8.050;2023-06-14T13:12:51;98363.47;;;21.94;31.49
79671;BME280;69137;50.878;8.050;2023-06-14T13:15:17;98365.25;;;22.11;32.49
79671;BME280;69137;50.878;8.050;2023-06-14T13:17:42;98359.56;;;22.29;31.67